createdAt,value
2023-01-31T00:00:16.747Z,102089.91
2023-01-31T00:02:45.350Z,102086.16
2023-01-31T00:05:15.322Z,102082.38
2023-01-31T00:07:43.885Z,102091.09
2023-01-31T00:10:13.146Z,102083.72
2023-01-31T00:12:41.747Z,102079.84
2023-01-31T00:15:13.532Z,102087.84
2023-01-31T00:17:42.081Z,102090.66
2023-01-31T00:20:12.489Z,102083.28
2023-01-31T00:22:42.395Z,102084.09
2023-01-31T00:25:11.306Z,102092.16
2023-01-31T00:27:39.820Z,102097.72
2023-01-31T00:30:10.620Z,102092.00
2023-01-31T00:32:39.201Z,102085.75
2023-01-31T00:35:08.445Z,102085.44
2023-01-31T00:37:37.492Z,102091.56
2023-01-31T00:40:08.804Z,102092.19
2023-01-31T00:42:37.949Z,102096.78
2023-01-31T00:45:08.158Z,102098.19
2023-01-31T00:47:37.043Z,102099.25
2023-01-31T00:50:06.974Z,102097.13
2023-01-31T00:52:36.118Z,102106.31
2023-01-31T00:55:07.056Z,102093.09
2023-01-31T00:57:36.048Z,102089.69
2023-01-31T01:00:05.752Z,102097.56
2023-01-31T01:02:34.854Z,102098.91
2023-01-31T01:05:03.482Z,102100.78
2023-01-31T01:07:32.909Z,102096.50
2023-01-31T01:10:01.568Z,102104.44
2023-01-31T01:12:32.003Z,102112.28
2023-01-31T01:15:00.657Z,102108.13
2023-01-31T01:17:29.235Z,102112.41
2023-01-31T01:19:57.792Z,102096.81
2023-01-31T01:22:26.295Z,102105.28
2023-01-31T01:24:54.840Z,102109.97
2023-01-31T01:27:23.376Z,102102.84
2023-01-31T01:29:53.294Z,102101.41
2023-01-31T01:32:22.106Z,102099.56
2023-01-31T01:34:50.693Z,102094.56
2023-01-31T01:37:21.095Z,102077.38
2023-01-31T01:39:50.401Z,102081.94
2023-01-31T01:42:20.503Z,102078.97
2023-01-31T01:44:53.509Z,102074.97
2023-01-31T01:47:33.304Z,102077.22
2023-01-31T01:50:05.896Z,102077.16
2023-01-31T01:52:39.467Z,102075.81
2023-01-31T01:55:17.123Z,102077.06
2023-01-31T01:57:48.862Z,102080.03
2023-01-31T02:00:23.000Z,102083.63
2023-01-31T02:02:54.667Z,102085.94
2023-01-31T02:05:27.377Z,102092.03
2023-01-31T02:07:57.140Z,102084.13
2023-01-31T02:10:29.174Z,102086.47
2023-01-31T02:12:57.986Z,102082.28
2023-01-31T02:15:28.209Z,102085.88
2023-01-31T02:17:56.882Z,102083.94
2023-01-31T02:20:57.673Z,102091.66
2023-01-31T02:23:53.824Z,102091.78
2023-01-31T02:26:56.504Z,102098.28
2023-01-31T02:29:35.605Z,102103.13
2023-01-31T02:32:46.865Z,102097.44
2023-01-31T02:35:25.726Z,102097.84
2023-01-31T02:38:13.140Z,102093.84
2023-01-31T02:40:55.672Z,102097.56
2023-01-31T02:43:56.382Z,102094.75
2023-01-31T02:46:29.937Z,102104.84
2023-01-31T02:49:08.439Z,102092.91
2023-01-31T02:51:42.961Z,102100.53
2023-01-31T02:54:16.840Z,102091.75
2023-01-31T02:56:47.041Z,102083.94
2023-01-31T02:59:22.023Z,102084.94
2023-01-31T03:01:57.526Z,102089.38
2023-01-31T03:04:31.840Z,102092.38
2023-01-31T03:07:07.447Z,102080.41
2023-01-31T03:09:49.677Z,102079.22
2023-01-31T03:12:53.642Z,102082.19
2023-01-31T03:15:50.518Z,102078.56
2023-01-31T03:18:25.119Z,102072.38
2023-01-31T03:21:01.951Z,102074.06
2023-01-31T03:23:33.502Z,102068.72
2023-01-31T03:26:04.542Z,102067.69
2023-01-31T03:28:37.140Z,102064.63
2023-01-31T03:31:11.937Z,102054.06
2023-01-31T03:33:45.485Z,102059.34
2023-01-31T03:36:25.862Z,102061.91
2023-01-31T03:39:10.815Z,102053.81
2023-01-31T03:41:49.285Z,102054.22
2023-01-31T03:44:25.866Z,102050.44
2023-01-31T03:47:00.694Z,102043.75
2023-01-31T03:49:31.070Z,102039.84
2023-01-31T03:52:05.923Z,102041.72
2023-01-31T03:54:40.395Z,102035.53
2023-01-31T03:57:17.054Z,102033.38
2023-01-31T03:59:48.875Z,102037.00
2023-01-31T04:02:19.909Z,102019.84
2023-01-31T04:04:53.000Z,102023.03
2023-01-31T04:07:22.975Z,102019.00
2023-01-31T04:09:51.634Z,102018.53
2023-01-31T04:12:20.272Z,102016.41
2023-01-31T04:14:48.810Z,102003.22
2023-01-31T04:17:17.372Z,102004.47
2023-01-31T04:19:45.957Z,102006.81
2023-01-31T04:22:14.541Z,102014.25
2023-01-31T04:24:44.495Z,102012.44
2023-01-31T04:27:13.046Z,102019.44
2023-01-31T04:29:41.613Z,102019.91
2023-01-31T04:32:10.681Z,102018.00
2023-01-31T04:34:39.269Z,102015.66
2023-01-31T04:37:07.902Z,102018.13
2023-01-31T04:39:36.728Z,102015.84
2023-01-31T04:42:06.797Z,102025.66
2023-01-31T04:44:35.441Z,102022.13
2023-01-31T04:47:04.057Z,102023.91
2023-01-31T04:49:33.014Z,102015.34
2023-01-31T04:52:01.607Z,102019.81
2023-01-31T04:54:30.145Z,102018.63
2023-01-31T04:56:58.757Z,102012.44
2023-01-31T04:59:28.693Z,102003.34
2023-01-31T05:01:57.663Z,101996.97
2023-01-31T05:04:26.483Z,101998.59
2023-01-31T05:06:55.069Z,102000.09
2023-01-31T05:09:24.977Z,101997.38
2023-01-31T05:11:53.597Z,102005.25
2023-01-31T05:14:22.131Z,101995.50
2023-01-31T05:16:52.119Z,101992.69
2023-01-31T05:19:20.660Z,101988.78
2023-01-31T05:21:59.351Z,101993.16
2023-01-31T05:24:29.567Z,101983.34
2023-01-31T05:27:00.630Z,101989.84
2023-01-31T05:29:30.527Z,101991.75
2023-01-31T05:32:03.706Z,101981.72
2023-01-31T05:34:33.362Z,101975.31
2023-01-31T05:37:02.662Z,101983.78
2023-01-31T05:39:32.303Z,101969.88
2023-01-31T05:42:01.043Z,101972.47
2023-01-31T05:44:29.724Z,101965.03
2023-01-31T05:47:01.421Z,101963.28
2023-01-31T05:49:33.391Z,101961.56
2023-01-31T05:52:02.193Z,101955.56
2023-01-31T05:54:31.368Z,101961.09
2023-01-31T05:57:00.301Z,101959.19
2023-01-31T05:59:31.224Z,101942.84
2023-01-31T06:02:01.238Z,101936.91
2023-01-31T06:04:29.848Z,101932.78
2023-01-31T06:06:59.029Z,101935.22
2023-01-31T06:09:27.676Z,101930.78
2023-01-31T06:11:56.235Z,101938.09
2023-01-31T06:14:25.125Z,101946.34
2023-01-31T06:16:53.754Z,101940.00
2023-01-31T06:19:25.432Z,101944.16
2023-01-31T06:21:54.079Z,101955.41
2023-01-31T06:24:22.669Z,101947.47
2023-01-31T06:26:51.297Z,101956.81
2023-01-31T06:29:19.864Z,101958.50
2023-01-31T06:31:48.488Z,101957.53
2023-01-31T06:34:17.135Z,101957.50
2023-01-31T06:36:47.162Z,101951.63
2023-01-31T06:39:16.240Z,101955.94
2023-01-31T06:41:44.888Z,101949.75
2023-01-31T06:44:13.424Z,101942.91
2023-01-31T06:46:41.985Z,101935.22
2023-01-31T06:49:10.534Z,101954.91
2023-01-31T06:51:39.117Z,101950.78
2023-01-31T06:54:09.059Z,101955.06
2023-01-31T06:56:37.616Z,101959.31
2023-01-31T06:59:06.286Z,101958.44
2023-01-31T07:01:34.996Z,101960.50
2023-01-31T07:04:03.598Z,101968.59
2023-01-31T07:06:32.598Z,101955.59
2023-01-31T07:09:01.246Z,101950.75
2023-01-31T07:11:31.517Z,101960.63
2023-01-31T07:14:00.212Z,101946.16
2023-01-31T07:16:28.828Z,101960.72
2023-01-31T07:18:57.756Z,101950.09
2023-01-31T07:21:26.835Z,101935.22
2023-01-31T07:23:55.402Z,101947.03
2023-01-31T07:26:24.058Z,101945.47
2023-01-31T07:28:54.131Z,101942.22
2023-01-31T07:31:22.746Z,101940.00
2023-01-31T07:33:51.405Z,101939.13
2023-01-31T07:36:26.364Z,101957.16
2023-01-31T07:38:56.761Z,101951.16
2023-01-31T07:41:25.818Z,101948.72
2023-01-31T07:43:55.814Z,101936.09
2023-01-31T07:46:24.421Z,101932.16
2023-01-31T07:48:53.770Z,101926.31
2023-01-31T07:51:22.319Z,101920.94
2023-01-31T07:53:51.048Z,101921.34
2023-01-31T07:56:21.784Z,101914.84
2023-01-31T07:58:51.559Z,101912.63
2023-01-31T08:01:41.226Z,101916.56
2023-01-31T08:04:21.078Z,101913.31
2023-01-31T08:06:54.344Z,101914.44
2023-01-31T08:09:22.977Z,101921.03
2023-01-31T08:11:52.028Z,101908.00
2023-01-31T08:14:25.343Z,101907.41
2023-01-31T08:16:55.548Z,101902.44
2023-01-31T08:19:24.454Z,101890.53
2023-01-31T08:21:53.091Z,101903.22
2023-01-31T08:24:21.676Z,101894.84
2023-01-31T08:26:50.278Z,101894.69
2023-01-31T08:29:18.891Z,101893.78
2023-01-31T08:31:49.776Z,101896.81
2023-01-31T08:34:21.415Z,101911.94
2023-01-31T08:36:50.099Z,101890.53
2023-01-31T08:39:18.861Z,101904.38
2023-01-31T08:41:47.984Z,101895.19
2023-01-31T08:44:16.615Z,101883.31
2023-01-31T08:46:45.767Z,101889.53
2023-01-31T08:49:15.260Z,101889.38
2023-01-31T08:51:45.273Z,101884.34
2023-01-31T08:54:13.896Z,101869.84
2023-01-31T08:56:42.464Z,101864.13
2023-01-31T08:59:12.729Z,101867.28
2023-01-31T09:01:42.496Z,101857.34
2023-01-31T09:04:11.095Z,101849.16
2023-01-31T09:06:39.990Z,101853.63
2023-01-31T09:09:11.034Z,101848.69
2023-01-31T09:11:39.733Z,101844.00
2023-01-31T09:14:08.367Z,101845.75
2023-01-31T09:16:36.919Z,101843.88
2023-01-31T09:19:05.558Z,101845.72
2023-01-31T09:21:34.120Z,101841.63
2023-01-31T09:24:03.979Z,101848.38
2023-01-31T09:26:34.452Z,101841.94
2023-01-31T09:29:03.265Z,101839.81
2023-01-31T09:31:32.306Z,101835.81
2023-01-31T09:34:01.008Z,101833.44
2023-01-31T09:36:30.188Z,101836.66
2023-01-31T09:38:59.502Z,101831.19
2023-01-31T09:41:34.799Z,101831.94
2023-01-31T09:44:06.724Z,101837.47
2023-01-31T09:46:40.655Z,101830.19
2023-01-31T09:49:17.049Z,101819.16
2023-01-31T09:51:46.312Z,101831.06
2023-01-31T09:54:21.859Z,101829.81
2023-01-31T09:57:02.078Z,101823.34
2023-01-31T09:59:38.709Z,101818.16
2023-01-31T10:02:27.895Z,101813.13
2023-01-31T10:05:13.806Z,101814.66
2023-01-31T10:07:51.232Z,101800.59
2023-01-31T10:10:31.231Z,101804.38
2023-01-31T10:13:05.779Z,101796.53
2023-01-31T10:15:40.900Z,101798.69
2023-01-31T10:18:15.208Z,101775.44
2023-01-31T10:20:50.254Z,101778.97
2023-01-31T10:23:26.533Z,101776.00
2023-01-31T10:26:00.511Z,101771.41
2023-01-31T10:28:36.575Z,101770.81
2023-01-31T10:31:13.259Z,101766.25
2023-01-31T10:33:50.595Z,101761.97
2023-01-31T10:36:27.991Z,101751.34
2023-01-31T10:39:03.904Z,101752.91
2023-01-31T10:41:42.276Z,101754.47
2023-01-31T10:44:22.966Z,101765.84
2023-01-31T10:46:52.616Z,101754.88
2023-01-31T10:49:25.208Z,101737.88
2023-01-31T10:52:13.371Z,101758.47
2023-01-31T10:54:54.760Z,101754.50
2023-01-31T10:57:24.040Z,101750.59
2023-01-31T10:59:56.251Z,101760.41
2023-01-31T11:02:27.955Z,101753.59
2023-01-31T11:04:58.262Z,101757.72
2023-01-31T11:07:30.146Z,101755.78
2023-01-31T11:09:58.779Z,101752.28
2023-01-31T11:12:42.534Z,101747.91
2023-01-31T11:15:20.289Z,101731.97
2023-01-31T11:17:49.657Z,101734.16
2023-01-31T11:20:25.018Z,101717.28
2023-01-31T11:22:54.423Z,101718.84
2023-01-31T11:25:25.600Z,101722.34
2023-01-31T11:27:58.662Z,101724.97
2023-01-31T11:30:32.192Z,101710.81
2023-01-31T11:33:01.118Z,101712.00
2023-01-31T11:35:31.585Z,101711.09
2023-01-31T11:38:02.213Z,101713.66
2023-01-31T11:40:33.673Z,101707.31
2023-01-31T11:43:04.238Z,101691.59
2023-01-31T11:45:37.320Z,101702.66
2023-01-31T11:48:12.300Z,101698.41
2023-01-31T11:50:44.342Z,101693.44
2023-01-31T11:53:20.302Z,101687.72
2023-01-31T11:55:50.751Z,101695.59
2023-01-31T11:58:22.827Z,101687.94
2023-01-31T12:00:57.804Z,101694.75
2023-01-31T12:03:27.202Z,101696.28
2023-01-31T12:06:02.570Z,101692.03
2023-01-31T12:08:34.246Z,101692.56
2023-01-31T12:11:06.371Z,101696.03
2023-01-31T12:13:47.821Z,101692.84
2023-01-31T12:16:22.380Z,101692.72
2023-01-31T12:19:01.028Z,101687.22
2023-01-31T12:21:48.550Z,101702.13
2023-01-31T12:24:34.715Z,101701.53
2023-01-31T12:27:12.507Z,101684.41
2023-01-31T12:29:58.214Z,101677.69
2023-01-31T12:32:41.227Z,101685.44
2023-01-31T12:35:53.870Z,101674.66
2023-01-31T12:38:48.487Z,101659.56
2023-01-31T12:41:27.842Z,101653.84
2023-01-31T12:44:21.684Z,101656.50
2023-01-31T12:47:11.342Z,101644.63
2023-01-31T12:49:58.529Z,101651.00
2023-01-31T12:52:37.959Z,101640.53
2023-01-31T12:55:20.842Z,101637.16
2023-01-31T12:57:58.507Z,101644.63
2023-01-31T13:00:35.155Z,101649.81
2023-01-31T13:03:20.285Z,101645.94
2023-01-31T13:05:58.874Z,101647.94
2023-01-31T13:08:30.735Z,101658.28
2023-01-31T13:11:03.713Z,101646.88
2023-01-31T13:13:37.301Z,101651.81
2023-01-31T13:16:13.831Z,101646.97
2023-01-31T13:18:44.300Z,101659.94
2023-01-31T13:21:18.958Z,101659.72
2023-01-31T13:23:51.567Z,101655.41
2023-01-31T13:26:23.214Z,101652.19
2023-01-31T13:28:58.263Z,101651.47
2023-01-31T13:31:29.587Z,101646.53
2023-01-31T13:34:06.472Z,101651.69
2023-01-31T13:36:44.551Z,101648.53
2023-01-31T13:39:20.755Z,101645.28
2023-01-31T13:41:49.498Z,101637.41
2023-01-31T13:44:18.450Z,101637.06
2023-01-31T13:46:58.018Z,101636.97
2023-01-31T13:49:30.805Z,101641.16
2023-01-31T13:52:03.193Z,101635.13
2023-01-31T13:54:37.054Z,101632.91
2023-01-31T13:57:06.697Z,101629.47
2023-01-31T13:59:38.637Z,101629.78
2023-01-31T14:02:18.354Z,101631.16
2023-01-31T14:04:47.983Z,101623.94
2023-01-31T14:07:21.589Z,101626.44
2023-01-31T14:10:32.675Z,101627.84
2023-01-31T14:13:37.924Z,101633.59
2023-01-31T14:16:38.913Z,101626.16
2023-01-31T14:19:32.076Z,101624.34
2023-01-31T14:22:07.047Z,101624.19
2023-01-31T14:25:12.480Z,101626.06
2023-01-31T14:28:04.436Z,101630.41
2023-01-31T14:30:43.043Z,101627.16
2023-01-31T14:33:30.375Z,101632.16
2023-01-31T14:36:41.483Z,101630.81
2023-01-31T14:39:42.130Z,101629.00
2023-01-31T14:42:36.195Z,101643.94
2023-01-31T14:45:24.206Z,101632.78
2023-01-31T14:48:16.469Z,101640.25
2023-01-31T14:50:58.721Z,101636.09
2023-01-31T14:53:50.130Z,101622.03
2023-01-31T14:56:35.776Z,101630.59
2023-01-31T14:59:06.249Z,101638.75
2023-01-31T15:01:38.234Z,101637.81
2023-01-31T15:04:07.740Z,101640.91
2023-01-31T15:06:40.941Z,101655.09
2023-01-31T15:09:35.134Z,101664.03
2023-01-31T15:12:07.861Z,101655.53
2023-01-31T15:14:42.143Z,101667.25
2023-01-31T15:17:33.714Z,101671.75
2023-01-31T15:20:16.094Z,101676.44
2023-01-31T15:22:45.634Z,101680.97
2023-01-31T15:25:27.193Z,101668.78
2023-01-31T15:27:57.875Z,101678.81
2023-01-31T15:30:31.110Z,101668.94
2023-01-31T15:33:06.543Z,101670.28
2023-01-31T15:35:44.655Z,101671.94
2023-01-31T15:38:23.514Z,101660.53
2023-01-31T15:41:18.349Z,101671.41
2023-01-31T15:43:47.829Z,101665.91
2023-01-31T15:46:23.958Z,101666.53
2023-01-31T15:48:52.773Z,101670.78
2023-01-31T15:51:22.291Z,101685.19
2023-01-31T15:54:01.421Z,101676.22
2023-01-31T15:56:31.339Z,101682.59
2023-01-31T15:59:00.462Z,101679.03
2023-01-31T16:01:31.782Z,101690.03
2023-01-31T16:04:01.687Z,101694.28
2023-01-31T16:06:34.262Z,101695.22
2023-01-31T16:09:04.984Z,101694.97
2023-01-31T16:11:35.233Z,101692.38
2023-01-31T16:14:06.304Z,101706.31
2023-01-31T16:16:38.233Z,101699.84
2023-01-31T16:19:07.741Z,101690.63
2023-01-31T16:21:40.185Z,101698.38
2023-01-31T16:24:16.310Z,101687.78
2023-01-31T16:26:55.949Z,101695.66
2023-01-31T16:29:28.273Z,101693.28
2023-01-31T16:31:58.264Z,101699.25
2023-01-31T16:34:29.228Z,101700.19
2023-01-31T16:37:01.969Z,101697.81
2023-01-31T16:39:38.402Z,101698.44
2023-01-31T16:42:09.565Z,101704.69
2023-01-31T16:44:43.160Z,101700.56
2023-01-31T16:47:35.411Z,101703.44
2023-01-31T16:50:41.818Z,101705.41
2023-01-31T16:53:26.402Z,101700.22
2023-01-31T16:56:23.107Z,101697.41
2023-01-31T16:58:54.596Z,101708.91
2023-01-31T17:01:26.663Z,101711.16
2023-01-31T17:04:20.500Z,101713.25
2023-01-31T17:06:52.210Z,101720.19
2023-01-31T17:09:23.433Z,101725.56
2023-01-31T17:11:54.407Z,101732.72
2023-01-31T17:14:23.066Z,101726.53
2023-01-31T17:16:53.263Z,101727.44
2023-01-31T17:19:23.557Z,101729.53
2023-01-31T17:21:52.390Z,101720.66
2023-01-31T17:24:23.663Z,101724.34
2023-01-31T17:26:53.930Z,101728.03
2023-01-31T17:29:23.344Z,101728.22
2023-01-31T17:31:52.142Z,101726.78
2023-01-31T17:34:22.120Z,101720.34
2023-01-31T17:36:50.691Z,101713.75
2023-01-31T17:39:19.263Z,101713.63
2023-01-31T17:41:48.076Z,101709.66
2023-01-31T17:44:16.848Z,101693.59
2023-01-31T17:46:45.552Z,101696.63
2023-01-31T17:49:14.325Z,101693.19
2023-01-31T17:51:45.501Z,101692.50
2023-01-31T17:54:14.119Z,101699.63
2023-01-31T17:56:42.745Z,101700.66
2023-01-31T17:59:21.672Z,101691.50
2023-01-31T18:01:54.104Z,101693.22
2023-01-31T18:04:22.723Z,101708.25
2023-01-31T18:06:52.738Z,101693.84
2023-01-31T18:09:21.374Z,101701.72
2023-01-31T18:11:50.108Z,101710.00
2023-01-31T18:14:18.727Z,101710.03
2023-01-31T18:16:47.347Z,101716.50
2023-01-31T18:19:15.876Z,101715.16
2023-01-31T18:21:54.299Z,101708.25
2023-01-31T18:24:24.835Z,101706.41
2023-01-31T18:26:53.713Z,101704.47
2023-01-31T18:29:25.443Z,101713.78
2023-01-31T18:31:57.925Z,101704.84
2023-01-31T18:34:26.837Z,101694.78
2023-01-31T18:36:55.494Z,101700.00
2023-01-31T18:39:25.412Z,101701.41
2023-01-31T18:41:54.019Z,101714.59
2023-01-31T18:44:22.618Z,101709.53
2023-01-31T18:46:51.256Z,101713.38
2023-01-31T18:49:20.230Z,101714.47
2023-01-31T18:51:49.820Z,101712.03
2023-01-31T18:54:18.429Z,101721.03
2023-01-31T18:56:48.618Z,101726.53
2023-01-31T18:59:17.221Z,101731.56
2023-01-31T19:01:45.831Z,101733.72
2023-01-31T19:04:14.510Z,101726.66
2023-01-31T19:06:44.399Z,101727.56
2023-01-31T19:09:13.716Z,101732.56
2023-01-31T19:11:42.329Z,101727.94
2023-01-31T19:14:15.075Z,101728.41
2023-01-31T19:16:45.153Z,101733.72
2023-01-31T19:19:14.229Z,101724.25
2023-01-31T19:21:43.340Z,101731.22
2023-01-31T19:24:15.372Z,101723.81
2023-01-31T19:26:44.803Z,101735.25
2023-01-31T19:29:16.741Z,101744.63
2023-01-31T19:31:46.057Z,101740.03
2023-01-31T19:34:14.823Z,101729.91
2023-01-31T19:36:46.542Z,101726.53
2023-01-31T19:39:15.487Z,101735.91
2023-01-31T19:41:44.094Z,101729.16
2023-01-31T19:44:14.046Z,101724.25
2023-01-31T19:46:44.017Z,101733.34
2023-01-31T19:49:12.834Z,101735.28
2023-01-31T19:51:41.449Z,101738.22
2023-01-31T19:54:14.075Z,101737.72
2023-01-31T19:56:42.926Z,101744.59
2023-01-31T19:59:11.918Z,101747.91
2023-01-31T20:01:41.878Z,101745.72
2023-01-31T20:04:10.473Z,101757.13
2023-01-31T20:06:39.071Z,101763.19
2023-01-31T20:09:08.238Z,101757.88
2023-01-31T20:11:37.181Z,101753.59
2023-01-31T20:14:06.563Z,101747.16
2023-01-31T20:16:35.572Z,101743.16
2023-01-31T20:19:06.722Z,101739.78
2023-01-31T20:21:35.626Z,101748.56
2023-01-31T20:24:04.373Z,101744.03
2023-01-31T20:26:33.426Z,101748.22
2023-01-31T20:29:02.069Z,101750.59
2023-01-31T20:31:30.696Z,101746.28
2023-01-31T20:33:59.276Z,101748.56
2023-01-31T20:36:29.229Z,101744.16
2023-01-31T20:38:57.842Z,101749.09
2023-01-31T20:41:26.430Z,101751.22
2023-01-31T20:43:54.983Z,101746.81
2023-01-31T20:46:23.608Z,101745.34
2023-01-31T20:48:52.869Z,101734.88
2023-01-31T20:51:21.466Z,101728.41
2023-01-31T20:53:51.410Z,101738.72
2023-01-31T20:56:19.985Z,101750.28
2023-01-31T20:58:48.566Z,101752.00
2023-01-31T21:01:17.156Z,101740.69
2023-01-31T21:03:45.781Z,101740.91
2023-01-31T21:06:14.357Z,101737.50
2023-01-31T21:08:44.230Z,101742.56
2023-01-31T21:11:15.442Z,101736.22
2023-01-31T21:13:44.393Z,101742.84
2023-01-31T21:16:15.567Z,101741.88
2023-01-31T21:18:45.093Z,101739.50
2023-01-31T21:21:23.024Z,101729.44
2023-01-31T21:23:53.088Z,101730.56
2023-01-31T21:26:26.638Z,101727.91
2023-01-31T21:28:55.524Z,101738.84
2023-01-31T21:31:24.167Z,101728.81
2023-01-31T21:33:53.403Z,101725.75
2023-01-31T21:36:24.413Z,101719.06
2023-01-31T21:38:53.158Z,101727.75
2023-01-31T21:41:40.593Z,101730.25
2023-01-31T21:44:09.289Z,101734.28
2023-01-31T21:46:37.923Z,101729.38
2023-01-31T21:49:06.826Z,101726.97
2023-01-31T21:51:35.394Z,101721.88
2023-01-31T21:54:04.043Z,101718.16
2023-01-31T21:56:34.545Z,101712.63
2023-01-31T21:59:03.191Z,101709.09
2023-01-31T22:01:33.765Z,101702.38
2023-01-31T22:04:02.670Z,101709.34
2023-01-31T22:06:36.827Z,101701.84
2023-01-31T22:09:07.330Z,101712.03
2023-01-31T22:11:38.196Z,101700.56
2023-01-31T22:14:08.689Z,101692.13
2023-01-31T22:16:37.692Z,101690.34
2023-01-31T22:19:06.438Z,101679.09
2023-01-31T22:21:36.655Z,101687.16
2023-01-31T22:24:07.256Z,101684.28
2023-01-31T22:26:38.930Z,101688.28
2023-01-31T22:29:09.577Z,101678.69
2023-01-31T22:31:38.491Z,101686.47
2023-01-31T22:34:08.822Z,101689.97
2023-01-31T22:36:37.742Z,101680.88
2023-01-31T22:39:06.841Z,101678.78
2023-01-31T22:41:36.792Z,101674.28
2023-01-31T22:44:05.576Z,101668.44
2023-01-31T22:46:34.262Z,101673.28
2023-01-31T22:49:02.921Z,101668.88
2023-01-31T22:51:31.602Z,101673.75
2023-01-31T22:54:00.397Z,101666.03
2023-01-31T22:56:32.215Z,101662.50
2023-01-31T22:59:04.116Z,101657.50
2023-01-31T23:01:35.280Z,101655.34
2023-01-31T23:04:05.601Z,101656.69
2023-01-31T23:06:35.633Z,101650.69
2023-01-31T23:09:04.681Z,101643.66
2023-01-31T23:11:33.338Z,101641.91
2023-01-31T23:14:03.501Z,101643.69
2023-01-31T23:16:49.457Z,101641.06
2023-01-31T23:19:18.121Z,101629.19
2023-01-31T23:21:48.926Z,101637.91
2023-01-31T23:24:19.131Z,101647.44
2023-01-31T23:26:48.072Z,101631.34
2023-01-31T23:29:18.143Z,101641.97
2023-01-31T23:31:48.620Z,101640.47
2023-01-31T23:34:17.260Z,101638.75
2023-01-31T23:36:45.831Z,101642.06
2023-01-31T23:39:14.542Z,101634.09
2023-01-31T23:41:43.409Z,101645.69
2023-01-31T23:44:12.020Z,101652.19
2023-01-31T23:46:42.079Z,101645.28
2023-01-31T23:49:10.693Z,101653.59
2023-01-31T23:51:39.595Z,101656.97
2023-01-31T23:54:08.215Z,101657.19
2023-01-31T23:56:36.876Z,101668.75
2023-01-31T23:59:05.543Z,101665.78
